Jack Guidry — WDF2422 — position and weather

sailwx.info

Track history (hours):
 
Tides and Currents Weather Stations Pressure Air Temp Water Temp Dewpoint Dewpoint Depression Visibility Wind Speed Wind Dir Waves Ship Positions

Jack Guidry

Owner: Enterprise Marine Services, LLC, San Antonio, TX. More information available from US FCC via Universal Licensing System and Coast Guard Vessel Documentation Center.

Last reported at 2017-May-24 09:14 UTC. Time now 2017-May-24 10:05 UTC.
Position N 29°45' W 095°06'.

Length 22 m; draft 3 m.

Type: Other ship. MMSI: 367003430.

Date/timePositionNaut miles runAvg speedWind from/ knotsBaromVisibWave heightAir tempDewpointWater temp
2017-May-24 09:14N 29°45' W 095°06'3 0.1
2017-May-23 02:01N 29°44' W 095°09'0 4.7
2017-May-23 02:01N 29°44' W 095°09'  
2017-May-20 16:14N 29°44' W 095°03'1 1.9
2017-May-20 15:59N 29°44' W 095°02'2 4.8
2017-May-20 15:31N 29°42' W 095°01'3 5.2
2017-May-20 15:01N 29°40' W 094°59'3 5.8
2017-May-20 14:30N 29°37' W 094°58'6 5.8
2017-May-20 13:30N 29°32' W 094°54'78 3.3
2017-May-19 13:50N 30°04' W 093°32'1 4.1
2017-May-19 13:31N 30°04' W 093°30'2 4.2
2017-May-19 13:01N 30°04' W 093°28'2 4.1
2017-May-19 12:27N 30°04' W 093°25'1 1.6
2017-May-19 12:00N 30°04' W 093°24'2 3.3
2017-May-19 11:30N 30°04' W 093°22'1 2.3
2017-May-19 11:00N 30°04' W 093°21'1 2.1
2017-May-19 10:31N 30°05' W 093°20'1 2.2
2017-May-19 10:00N 30°05' W 093°20'2 3.8
2017-May-19 09:30N 30°07' W 093°20'2 3.4
2017-May-19 09:00N 30°09' W 093°20'1 2.9
2017-May-19 08:31N 30°10' W 093°19'0 0.8
2017-May-19 08:00N 30°11' W 093°19'0 0.2
2017-May-19 07:29N 30°11' W 093°19'0 0.2
2017-May-19 06:59N 30°11' W 093°19'0 0.1
2017-May-19 06:29N 30°11' W 093°19'0 0.0
2017-May-19 05:59N 30°11' W 093°19'0 0.0
2017-May-19 05:29N 30°11' W 093°19'0 0.0
2017-May-19 04:59N 30°11' W 093°19'0 0.0
2017-May-19 04:29N 30°11' W 093°19'0 0.0
2017-May-19 03:59N 30°11' W 093°19'0 0.0
2017-May-19 03:29N 30°11' W 093°19'0 0.0
2017-May-19 02:59N 30°11' W 093°19'0 0.0
2017-May-19 02:29N 30°11' W 093°19'0 0.0
2017-May-19 01:59N 30°11' W 093°19'0 0.0
2017-May-19 01:29N 30°11' W 093°19'0 0.0
2017-May-19 00:59N 30°11' W 093°19'0 0.0
2017-May-19 00:29N 30°11' W 093°19'0 0.0
2017-May-18 23:56N 30°11' W 093°19'0 0.0
2017-May-18 23:28N 30°11' W 093°19'0 0.0
2017-May-18 23:00N 30°11' W 093°19'0 0.0
2017-May-18 22:30N 30°11' W 093°19'0 0.0
2017-May-18 22:00N 30°11' W 093°19'0 0.0
2017-May-18 21:30N 30°11' W 093°19'0 0.0
2017-May-18 21:00N 30°11' W 093°19'0 0.0
2017-May-18 20:30N 30°11' W 093°19'0 0.0
2017-May-18 20:00N 30°11' W 093°19'0 0.0
2017-May-18 19:30N 30°11' W 093°19'0 0.0
2017-May-18 19:00N 30°11' W 093°19'0 0.0
2017-May-18 18:30N 30°11' W 093°19'0 0.0
2017-May-18 18:00N 30°11' W 093°19'0 0.0
2017-May-18 17:30N 30°11' W 093°19'0 0.0
2017-May-18 16:59N 30°11' W 093°19'0 0.0
2017-May-18 16:30N 30°11' W 093°19'0 0.0
2017-May-18 15:59N 30°11' W 093°19'0 0.0
2017-May-18 15:29N 30°11' W 093°19'0 0.0
2017-May-18 14:59N 30°11' W 093°19'0 0.0
2017-May-18 14:30N 30°11' W 093°19'0 0.0
2017-May-18 13:30N 30°11' W 093°19'0 0.0
2017-May-18 13:00N 30°11' W 093°19'0 0.0
2017-May-18 12:30N 30°11' W 093°19'0 0.0
2017-May-18 12:00N 30°11' W 093°19'0 0.0
2017-May-18 11:30N 30°11' W 093°19'0 0.0
2017-May-18 11:00N 30°11' W 093°19'0 0.0
2017-May-18 10:30N 30°11' W 093°19'0 0.0
2017-May-18 10:00N 30°11' W 093°19'0 0.0
2017-May-18 09:30N 30°11' W 093°19'0 0.0
2017-May-18 09:00N 30°11' W 093°19'0 0.0
2017-May-18 08:30N 30°11' W 093°19'0 0.1
2017-May-18 08:00N 30°11' W 093°19'0 0.0
2017-May-18 07:30N 30°11' W 093°19'1 1.7
2017-May-18 07:00N 30°10' W 093°19'2 4.8
2017-May-18 06:30N 30°08' W 093°20'3 5.1
2017-May-18 06:00N 30°05' W 093°20'1 1.9
2017-May-18 05:28N 30°04' W 093°21'0 0.0
2017-May-18 04:58N 30°04' W 093°21'0 0.0
2017-May-18 04:28N 30°04' W 093°21'0 0.0
2017-May-18 03:58N 30°04' W 093°21'0 0.0
2017-May-18 03:28N 30°04' W 093°21'0 0.0
2017-May-18 02:58N 30°04' W 093°21'0 0.0
2017-May-18 02:28N 30°04' W 093°21'0 0.0
2017-May-18 01:58N 30°04' W 093°21'0 0.0
2017-May-18 01:28N 30°04' W 093°21'0 0.0
2017-May-18 00:58N 30°04' W 093°21'0 0.0
2017-May-18 00:28N 30°04' W 093°21'0 0.0
2017-May-17 23:58N 30°04' W 093°21'0 0.0
2017-May-17 23:28N 30°04' W 093°21'0 0.0
2017-May-17 22:58N 30°04' W 093°21'0 0.0
2017-May-17 22:28N 30°04' W 093°21'0 0.0
2017-May-17 21:58N 30°04' W 093°21'0 0.0
2017-May-17 21:28N 30°04' W 093°21'0 0.0
2017-May-17 20:58N 30°04' W 093°21'0 0.0
2017-May-17 20:28N 30°04' W 093°21'0 0.0
2017-May-17 19:58N 30°04' W 093°21'0 0.0
2017-May-17 19:28N 30°04' W 093°21'0 0.0
2017-May-17 18:58N 30°04' W 093°21'0 0.0
2017-May-17 18:25N 30°04' W 093°21'0 0.0
2017-May-17 17:58N 30°04' W 093°21'0 0.0
2017-May-17 17:28N 30°04' W 093°21'0 0.0
2017-May-17 16:58N 30°04' W 093°21'0 0.0
2017-May-17 16:28N 30°04' W 093°21'0 0.0
2017-May-17 15:58N 30°04' W 093°21'0 0.0
2017-May-17 15:28N 30°04' W 093°21'0 0.0
2017-May-17 14:58N 30°04' W 093°21'0 0.0
2017-May-17 14:28N 30°04' W 093°21'0 0.0
2017-May-17 13:28N 30°04' W 093°21'0 0.0
2017-May-17 12:58N 30°04' W 093°21'0 0.0
2017-May-17 12:28N 30°04' W 093°21'0 0.0
2017-May-17 11:58N 30°04' W 093°21'0 0.0
2017-May-17 11:28N 30°04' W 093°21'0 0.0
2017-May-17 10:58N 30°04' W 093°21'0 0.0
2017-May-17 10:28N 30°04' W 093°21'0 0.0
2017-May-17 09:58N 30°04' W 093°21'0 0.0
2017-May-17 09:28N 30°04' W 093°21'0 0.0
2017-May-17 08:58N 30°04' W 093°21'0 0.0
2017-May-17 08:28N 30°04' W 093°21'0 0.0
2017-May-17 07:58N 30°04' W 093°21'0 0.0
2017-May-17 07:28N 30°04' W 093°21'0 0.0
2017-May-17 06:58N 30°04' W 093°21'0 0.0
2017-May-17 06:28N 30°04' W 093°21'0 0.0
2017-May-17 05:58N 30°04' W 093°21'0 0.0
2017-May-17 05:28N 30°04' W 093°21'0 0.0
2017-May-17 04:58N 30°04' W 093°21'0 0.0
2017-May-17 04:28N 30°04' W 093°21'0 0.0
2017-May-17 03:58N 30°04' W 093°21'0 0.0
2017-May-17 03:28N 30°04' W 093°21'0 0.0
2017-May-17 02:58N 30°04' W 093°21'0 0.0
2017-May-17 02:28N 30°04' W 093°21'0 0.0
2017-May-17 01:55N 30°04' W 093°21'0 0.0
2017-May-17 01:28N 30°04' W 093°21'0 0.0
2017-May-17 00:58N 30°04' W 093°21'0 0.0
2017-May-17 00:28N 30°04' W 093°21'0 0.0
2017-May-16 23:58N 30°04' W 093°21'0 0.0
2017-May-16 23:28N 30°04' W 093°21'0 0.0
2017-May-16 22:58N 30°04' W 093°21'0 0.0
2017-May-16 22:28N 30°04' W 093°21'0 0.7
2017-May-16 22:00N 30°04' W 093°20'1 1.7
2017-May-16 21:30N 30°05' W 093°20'0 0.0
2017-May-16 21:00N 30°05' W 093°20'0 0.0
2017-May-16 20:30N 30°05' W 093°20'0 0.0
2017-May-16 20:00N 30°05' W 093°20'0 0.0
2017-May-16 19:30N 30°05' W 093°20'0 0.0
2017-May-16 19:00N 30°05' W 093°20'0 0.0
2017-May-16 18:30N 30°05' W 093°20'0 0.0
2017-May-16 18:00N 30°05' W 093°20'0 0.0
2017-May-16 17:30N 30°05' W 093°20'0 0.0
2017-May-16 17:00N 30°05' W 093°20'0 0.0
2017-May-16 16:30N 30°05' W 093°20'1 2.3
2017-May-16 16:00N 30°04' W 093°21'0 0.0
2017-May-16 15:30N 30°04' W 093°21'0 0.0
2017-May-16 15:00N 30°04' W 093°21'0 0.0
2017-May-16 14:30N 30°04' W 093°21'0 0.0
2017-May-16 13:30N 30°04' W 093°21'0 0.0
2017-May-16 13:00N 30°04' W 093°21'0 0.0
2017-May-16 12:30N 30°04' W 093°21'0 0.0
2017-May-16 12:00N 30°04' W 093°21'0 0.0
2017-May-16 11:27N 30°04' W 093°21'0 0.0
2017-May-16 11:00N 30°04' W 093°21'0 0.0
2017-May-16 10:30N 30°04' W 093°21'0 0.0
2017-May-16 10:00N 30°04' W 093°21'0 0.0
2017-May-16 09:30N 30°04' W 093°21'0 0.0
2017-May-16 09:00N 30°04' W 093°21'0 0.0
2017-May-16 08:30N 30°04' W 093°21'0 0.0
2017-May-16 08:00N 30°04' W 093°21'0 0.0
2017-May-16 07:30N 30°04' W 093°21'0 0.0
2017-May-16 07:00N 30°04' W 093°21'0 0.0
2017-May-16 06:30N 30°04' W 093°21'0 0.0
2017-May-16 06:00N 30°04' W 093°21'0 0.0
2017-May-16 05:30N 30°04' W 093°21'0 0.0
2017-May-16 05:00N 30°04' W 093°21'0 0.0
2017-May-16 04:30N 30°04' W 093°21'0 0.0
2017-May-16 04:00N 30°04' W 093°21'0 0.0
2017-May-16 03:30N 30°04' W 093°21'0 0.0
2017-May-16 03:00N 30°04' W 093°21'0 0.0
2017-May-16 02:30N 30°04' W 093°21'0 0.0
2017-May-16 02:00N 30°04' W 093°21'0 0.0
2017-May-16 01:30N 30°04' W 093°21'0 0.0
2017-May-16 01:00N 30°04' W 093°21'0 0.0
2017-May-16 00:30N 30°04' W 093°21'0 0.0
2017-May-16 00:00N 30°04' W 093°21'0 0.0
2017-May-15 23:30N 30°04' W 093°21'0 0.0
2017-May-15 23:00N 30°04' W 093°21'0 0.0
2017-May-15 22:27N 30°04' W 093°21'0 0.0
2017-May-15 21:57N 30°04' W 093°21'0 0.0
2017-May-15 21:30N 30°04' W 093°21'0 0.0
2017-May-15 21:00N 30°04' W 093°21'0 0.0
2017-May-15 20:30N 30°04' W 093°21'0 0.0
2017-May-15 20:00N 30°04' W 093°21'0 0.0
2017-May-15 19:30N 30°04' W 093°21'0 0.0
2017-May-15 19:00N 30°04' W 093°21'0 0.0
2017-May-15 18:30N 30°04' W 093°21'0 0.0
2017-May-15 18:00N 30°04' W 093°21'1 2.3
2017-May-15 17:30N 30°05' W 093°20'0 0.0
2017-May-15 17:00N 30°05' W 093°20'0 0.0
2017-May-15 16:30N 30°05' W 093°20'0 0.0
2017-May-15 16:00N 30°05' W 093°20'0 0.3
2017-May-15 15:31N 30°05' W 093°20'2 3.4
2017-May-15 14:59N 30°06' W 093°18'0 0.0
2017-May-15 13:59N 30°06' W 093°18'0 0.0
2017-May-15 13:29N 30°06' W 093°18'0 0.0
2017-May-15 12:59N 30°06' W 093°18'1 2.6
2017-May-15 12:30N 30°06' W 093°19'2 3.5
2017-May-15 12:00N 30°04' W 093°21'0 0.0
2017-May-15 11:30N 30°04' W 093°21'0 0.0
2017-May-15 11:00N 30°04' W 093°21'0 0.0
2017-May-15 10:31N 30°04' W 093°21'0 0.0
2017-May-15 10:01N 30°04' W 093°21'0 0.0
2017-May-15 09:31N 30°04' W 093°21'0 0.0
2017-May-15 09:00N 30°04' W 093°21'0 0.0
2017-May-15 08:30N 30°04' W 093°21'0 0.0
2017-May-15 08:00N 30°04' W 093°21'0 0.0
2017-May-15 07:31N 30°04' W 093°21'0 0.0
2017-May-15 07:01N 30°04' W 093°21'0 0.0
2017-May-15 06:31N 30°04' W 093°21'0 0.0
2017-May-15 06:00N 30°04' W 093°21'0 0.0
2017-May-15 05:30N 30°04' W 093°21'0 0.0
2017-May-15 05:01N 30°04' W 093°21'0 0.1
2017-May-15 04:30N 30°04' W 093°21'1 2.5
2017-May-15 04:01N 30°05' W 093°20'1 2.8
2017-May-15 03:30N 30°06' W 093°19'0 0.1
2017-May-15 03:00N 30°06' W 093°19'0 0.0
2017-May-15 02:30N 30°06' W 093°19'1 2.1
2017-May-15 02:01N 30°05' W 093°18'2 3.2
2017-May-15 01:30N 30°04' W 093°16'1 1.5
2017-May-15 01:00N 30°04' W 093°16'2 4.3
2017-May-15 00:30N 30°02' W 093°15'3 5.4
2017-May-15 00:00N 29°60' W 093°13'3 6.8
2017-May-14 23:30N 29°57' W 093°10'  
Track history (hours):
 
Tides and Currents Weather Stations Pressure Air Temp Water Temp Dewpoint Dewpoint Depression Visibility Wind Speed Wind Dir Waves Ship Positions

Jack Guidry

Owner: Enterprise Marine Services, LLC, San Antonio, TX. More information available from US FCC via Universal Licensing System and Coast Guard Vessel Documentation Center.

Last reported at 2017-May-24 09:14 UTC. Time now 2017-May-24 10:05 UTC.
Position N 29°45' W 095°06'.

Length 22 m; draft 3 m.

Type: Other ship. MMSI: 367003430.

Date/timePositionNaut miles runAvg speedWind from/ knotsBaromVisibWave heightAir tempDewpointWater temp
2017-May-24 09:14N 29°45' W 095°06'3 0.1
2017-May-23 02:01N 29°44' W 095°09'0 4.7
2017-May-23 02:01N 29°44' W 095°09'  
2017-May-20 16:14N 29°44' W 095°03'1 1.9
2017-May-20 15:59N 29°44' W 095°02'2 4.8
2017-May-20 15:31N 29°42' W 095°01'3 5.2
2017-May-20 15:01N 29°40' W 094°59'3 5.8
2017-May-20 14:30N 29°37' W 094°58'6 5.8
2017-May-20 13:30N 29°32' W 094°54'78 3.3
2017-May-19 13:50N 30°04' W 093°32'1 4.1
2017-May-19 13:31N 30°04' W 093°30'2 4.2
2017-May-19 13:01N 30°04' W 093°28'2 4.1
2017-May-19 12:27N 30°04' W 093°25'1 1.6
2017-May-19 12:00N 30°04' W 093°24'2 3.3
2017-May-19 11:30N 30°04' W 093°22'1 2.3
2017-May-19 11:00N 30°04' W 093°21'1 2.1
2017-May-19 10:31N 30°05' W 093°20'1 2.2
2017-May-19 10:00N 30°05' W 093°20'2 3.8
2017-May-19 09:30N 30°07' W 093°20'2 3.4
2017-May-19 09:00N 30°09' W 093°20'1 2.9
2017-May-19 08:31N 30°10' W 093°19'0 0.8
2017-May-19 08:00N 30°11' W 093°19'0 0.2
2017-May-19 07:29N 30°11' W 093°19'0 0.2
2017-May-19 06:59N 30°11' W 093°19'0 0.1
2017-May-19 06:29N 30°11' W 093°19'0 0.0
2017-May-19 05:59N 30°11' W 093°19'0 0.0
2017-May-19 05:29N 30°11' W 093°19'0 0.0
2017-May-19 04:59N 30°11' W 093°19'0 0.0
2017-May-19 04:29N 30°11' W 093°19'0 0.0
2017-May-19 03:59N 30°11' W 093°19'0 0.0
2017-May-19 03:29N 30°11' W 093°19'0 0.0
2017-May-19 02:59N 30°11' W 093°19'0 0.0
2017-May-19 02:29N 30°11' W 093°19'0 0.0
2017-May-19 01:59N 30°11' W 093°19'0 0.0
2017-May-19 01:29N 30°11' W 093°19'0 0.0
2017-May-19 00:59N 30°11' W 093°19'0 0.0
2017-May-19 00:29N 30°11' W 093°19'0 0.0
2017-May-18 23:56N 30°11' W 093°19'0 0.0
2017-May-18 23:28N 30°11' W 093°19'0 0.0
2017-May-18 23:00N 30°11' W 093°19'0 0.0
2017-May-18 22:30N 30°11' W 093°19'0 0.0
2017-May-18 22:00N 30°11' W 093°19'0 0.0
2017-May-18 21:30N 30°11' W 093°19'0 0.0
2017-May-18 21:00N 30°11' W 093°19'0 0.0
2017-May-18 20:30N 30°11' W 093°19'0 0.0
2017-May-18 20:00N 30°11' W 093°19'0 0.0
2017-May-18 19:30N 30°11' W 093°19'0 0.0
2017-May-18 19:00N 30°11' W 093°19'0 0.0
2017-May-18 18:30N 30°11' W 093°19'0 0.0
2017-May-18 18:00N 30°11' W 093°19'0 0.0
2017-May-18 17:30N 30°11' W 093°19'0 0.0
2017-May-18 16:59N 30°11' W 093°19'0 0.0
2017-May-18 16:30N 30°11' W 093°19'0 0.0
2017-May-18 15:59N 30°11' W 093°19'0 0.0
2017-May-18 15:29N 30°11' W 093°19'0 0.0
2017-May-18 14:59N 30°11' W 093°19'0 0.0
2017-May-18 14:30N 30°11' W 093°19'0 0.0
2017-May-18 13:30N 30°11' W 093°19'0 0.0
2017-May-18 13:00N 30°11' W 093°19'0 0.0
2017-May-18 12:30N 30°11' W 093°19'0 0.0
2017-May-18 12:00N 30°11' W 093°19'0 0.0
2017-May-18 11:30N 30°11' W 093°19'0 0.0
2017-May-18 11:00N 30°11' W 093°19'0 0.0
2017-May-18 10:30N 30°11' W 093°19'0 0.0
2017-May-18 10:00N 30°11' W 093°19'0 0.0
2017-May-18 09:30N 30°11' W 093°19'0 0.0
2017-May-18 09:00N 30°11' W 093°19'0 0.0
2017-May-18 08:30N 30°11' W 093°19'0 0.1
2017-May-18 08:00N 30°11' W 093°19'0 0.0
2017-May-18 07:30N 30°11' W 093°19'1 1.7
2017-May-18 07:00N 30°10' W 093°19'2 4.8
2017-May-18 06:30N 30°08' W 093°20'3 5.1
2017-May-18 06:00N 30°05' W 093°20'1 1.9
2017-May-18 05:28N 30°04' W 093°21'0 0.0
2017-May-18 04:58N 30°04' W 093°21'0 0.0
2017-May-18 04:28N 30°04' W 093°21'0 0.0
2017-May-18 03:58N 30°04' W 093°21'0 0.0
2017-May-18 03:28N 30°04' W 093°21'0 0.0
2017-May-18 02:58N 30°04' W 093°21'0 0.0
2017-May-18 02:28N 30°04' W 093°21'0 0.0
2017-May-18 01:58N 30°04' W 093°21'0 0.0
2017-May-18 01:28N 30°04' W 093°21'0 0.0
2017-May-18 00:58N 30°04' W 093°21'0 0.0
2017-May-18 00:28N 30°04' W 093°21'0 0.0
2017-May-17 23:58N 30°04' W 093°21'0 0.0
2017-May-17 23:28N 30°04' W 093°21'0 0.0
2017-May-17 22:58N 30°04' W 093°21'0 0.0
2017-May-17 22:28N 30°04' W 093°21'0 0.0
2017-May-17 21:58N 30°04' W 093°21'0 0.0
2017-May-17 21:28N 30°04' W 093°21'0 0.0
2017-May-17 20:58N 30°04' W 093°21'0 0.0
2017-May-17 20:28N 30°04' W 093°21'0 0.0
2017-May-17 19:58N 30°04' W 093°21'0 0.0
2017-May-17 19:28N 30°04' W 093°21'0 0.0
2017-May-17 18:58N 30°04' W 093°21'0 0.0
2017-May-17 18:25N 30°04' W 093°21'0 0.0
2017-May-17 17:58N 30°04' W 093°21'0 0.0
2017-May-17 17:28N 30°04' W 093°21'0 0.0
2017-May-17 16:58N 30°04' W 093°21'0 0.0
2017-May-17 16:28N 30°04' W 093°21'0 0.0
2017-May-17 15:58N 30°04' W 093°21'0 0.0
2017-May-17 15:28N 30°04' W 093°21'0 0.0
2017-May-17 14:58N 30°04' W 093°21'0 0.0
2017-May-17 14:28N 30°04' W 093°21'0 0.0
2017-May-17 13:28N 30°04' W 093°21'0 0.0
2017-May-17 12:58N 30°04' W 093°21'0 0.0
2017-May-17 12:28N 30°04' W 093°21'0 0.0
2017-May-17 11:58N 30°04' W 093°21'0 0.0
2017-May-17 11:28N 30°04' W 093°21'0 0.0
2017-May-17 10:58N 30°04' W 093°21'0 0.0
2017-May-17 10:28N 30°04' W 093°21'0 0.0
2017-May-17 09:58N 30°04' W 093°21'0 0.0
2017-May-17 09:28N 30°04' W 093°21'0 0.0
2017-May-17 08:58N 30°04' W 093°21'0 0.0
2017-May-17 08:28N 30°04' W 093°21'0 0.0
2017-May-17 07:58N 30°04' W 093°21'0 0.0
2017-May-17 07:28N 30°04' W 093°21'0 0.0
2017-May-17 06:58N 30°04' W 093°21'0 0.0
2017-May-17 06:28N 30°04' W 093°21'0 0.0
2017-May-17 05:58N 30°04' W 093°21'0 0.0
2017-May-17 05:28N 30°04' W 093°21'0 0.0
2017-May-17 04:58N 30°04' W 093°21'0 0.0
2017-May-17 04:28N 30°04' W 093°21'0 0.0
2017-May-17 03:58N 30°04' W 093°21'0 0.0
2017-May-17 03:28N 30°04' W 093°21'0 0.0
2017-May-17 02:58N 30°04' W 093°21'0 0.0
2017-May-17 02:28N 30°04' W 093°21'0 0.0
2017-May-17 01:55N 30°04' W 093°21'0 0.0
2017-May-17 01:28N 30°04' W 093°21'0 0.0
2017-May-17 00:58N 30°04' W 093°21'0 0.0
2017-May-17 00:28N 30°04' W 093°21'0 0.0
2017-May-16 23:58N 30°04' W 093°21'0 0.0
2017-May-16 23:28N 30°04' W 093°21'0 0.0
2017-May-16 22:58N 30°04' W 093°21'0 0.0
2017-May-16 22:28N 30°04' W 093°21'0 0.7
2017-May-16 22:00N 30°04' W 093°20'1 1.7
2017-May-16 21:30N 30°05' W 093°20'0 0.0
2017-May-16 21:00N 30°05' W 093°20'0 0.0
2017-May-16 20:30N 30°05' W 093°20'0 0.0
2017-May-16 20:00N 30°05' W 093°20'0 0.0
2017-May-16 19:30N 30°05' W 093°20'0 0.0
2017-May-16 19:00N 30°05' W 093°20'0 0.0
2017-May-16 18:30N 30°05' W 093°20'0 0.0
2017-May-16 18:00N 30°05' W 093°20'0 0.0
2017-May-16 17:30N 30°05' W 093°20'0 0.0
2017-May-16 17:00N 30°05' W 093°20'0 0.0
2017-May-16 16:30N 30°05' W 093°20'1 2.3
2017-May-16 16:00N 30°04' W 093°21'0 0.0
2017-May-16 15:30N 30°04' W 093°21'0 0.0
2017-May-16 15:00N 30°04' W 093°21'0 0.0
2017-May-16 14:30N 30°04' W 093°21'0 0.0
2017-May-16 13:30N 30°04' W 093°21'0 0.0
2017-May-16 13:00N 30°04' W 093°21'0 0.0
2017-May-16 12:30N 30°04' W 093°21'0 0.0
2017-May-16 12:00N 30°04' W 093°21'0 0.0
2017-May-16 11:27N 30°04' W 093°21'0 0.0
2017-May-16 11:00N 30°04' W 093°21'0 0.0
2017-May-16 10:30N 30°04' W 093°21'0 0.0
2017-May-16 10:00N 30°04' W 093°21'0 0.0
2017-May-16 09:30N 30°04' W 093°21'0 0.0
2017-May-16 09:00N 30°04' W 093°21'0 0.0
2017-May-16 08:30N 30°04' W 093°21'0 0.0
2017-May-16 08:00N 30°04' W 093°21'0 0.0
2017-May-16 07:30N 30°04' W 093°21'0 0.0
2017-May-16 07:00N 30°04' W 093°21'0 0.0
2017-May-16 06:30N 30°04' W 093°21'0 0.0
2017-May-16 06:00N 30°04' W 093°21'0 0.0
2017-May-16 05:30N 30°04' W 093°21'0 0.0
2017-May-16 05:00N 30°04' W 093°21'0 0.0
2017-May-16 04:30N 30°04' W 093°21'0 0.0
2017-May-16 04:00N 30°04' W 093°21'0 0.0
2017-May-16 03:30N 30°04' W 093°21'0 0.0
2017-May-16 03:00N 30°04' W 093°21'0 0.0
2017-May-16 02:30N 30°04' W 093°21'0 0.0
2017-May-16 02:00N 30°04' W 093°21'0 0.0
2017-May-16 01:30N 30°04' W 093°21'0 0.0
2017-May-16 01:00N 30°04' W 093°21'0 0.0
2017-May-16 00:30N 30°04' W 093°21'0 0.0
2017-May-16 00:00N 30°04' W 093°21'0 0.0
2017-May-15 23:30N 30°04' W 093°21'0 0.0
2017-May-15 23:00N 30°04' W 093°21'0 0.0
2017-May-15 22:27N 30°04' W 093°21'0 0.0
2017-May-15 21:57N 30°04' W 093°21'0 0.0
2017-May-15 21:30N 30°04' W 093°21'0 0.0
2017-May-15 21:00N 30°04' W 093°21'0 0.0
2017-May-15 20:30N 30°04' W 093°21'0 0.0
2017-May-15 20:00N 30°04' W 093°21'0 0.0
2017-May-15 19:30N 30°04' W 093°21'0 0.0
2017-May-15 19:00N 30°04' W 093°21'0 0.0
2017-May-15 18:30N 30°04' W 093°21'0 0.0
2017-May-15 18:00N 30°04' W 093°21'1 2.3
2017-May-15 17:30N 30°05' W 093°20'0 0.0
2017-May-15 17:00N 30°05' W 093°20'0 0.0
2017-May-15 16:30N 30°05' W 093°20'0 0.0
2017-May-15 16:00N 30°05' W 093°20'0 0.3
2017-May-15 15:31N 30°05' W 093°20'2 3.4
2017-May-15 14:59N 30°06' W 093°18'0 0.0
2017-May-15 13:59N 30°06' W 093°18'0 0.0
2017-May-15 13:29N 30°06' W 093°18'0 0.0
2017-May-15 12:59N 30°06' W 093°18'1 2.6
2017-May-15 12:30N 30°06' W 093°19'2 3.5
2017-May-15 12:00N 30°04' W 093°21'0 0.0
2017-May-15 11:30N 30°04' W 093°21'0 0.0
2017-May-15 11:00N 30°04' W 093°21'0 0.0
2017-May-15 10:31N 30°04' W 093°21'0 0.0
2017-May-15 10:01N 30°04' W 093°21'0 0.0
2017-May-15 09:31N 30°04' W 093°21'0 0.0
2017-May-15 09:00N 30°04' W 093°21'0 0.0
2017-May-15 08:30N 30°04' W 093°21'0 0.0
2017-May-15 08:00N 30°04' W 093°21'0 0.0
2017-May-15 07:31N 30°04' W 093°21'0 0.0
2017-May-15 07:01N 30°04' W 093°21'0 0.0
2017-May-15 06:31N 30°04' W 093°21'0 0.0
2017-May-15 06:00N 30°04' W 093°21'0 0.0
2017-May-15 05:30N 30°04' W 093°21'0 0.0
2017-May-15 05:01N 30°04' W 093°21'0 0.1
2017-May-15 04:30N 30°04' W 093°21'1 2.5
2017-May-15 04:01N 30°05' W 093°20'1 2.8
2017-May-15 03:30N 30°06' W 093°19'0 0.1
2017-May-15 03:00N 30°06' W 093°19'0 0.0
2017-May-15 02:30N 30°06' W 093°19'1 2.1
2017-May-15 02:01N 30°05' W 093°18'2 3.2
2017-May-15 01:30N 30°04' W 093°16'1 1.5
2017-May-15 01:00N 30°04' W 093°16'2 4.3
2017-May-15 00:30N 30°02' W 093°15'3 5.4
2017-May-15 00:00N 29°60' W 093°13'3 6.8
2017-May-14 23:30N 29°57' W 093°10'  

Dump ship's entire track history